Página principal
METAR-TAF:

METAR-TAF

Aeroportos :

Tozeur, Tunísia

latitude: 33-55N, longitude: 008-06E, altura: 87 m

Observação actual do tempo

O boletim foi feito há 53 minutos, às 12:00 UTC
Vento 3 kt de oes-noroeste, variando entre sul e norte
Temperatura 18°C
Humidade 32%
Pressão 1028 hPa
Visibilidade 10 km ou mais
sem nuvens abaixo de 1500 metros e sem cumulonimbus

METAR: DTTZ 181200Z 29003KT 190V350 CAVOK 18/01 Q1028 NOSIG

Hora: 13:53 (12:53 UTC)

Previsão

O boletim foi feito há 1 hora e 53 minutos, às 11:00 UTC
Previsão válida de 18 às 12 UTC a 19 às 12 UTC
Vento 4 kt de oes-noroeste
Visibilidade 10 km ou mais
sem nuvens abaixo de 1500 metros e sem cumulonimbus

TAF: DTTZ 181100Z 1812/1912 30004KT CAVOK

Observações e previsões do tempo de mais de 4000 aeroportos (mensagens METAR e TAF).

As estações disponíveis são os pontos amarelos e vermelhos sobre o mapa.

Mova o rato sobre o mapa para ver o nome da estação.

Depois clique no ponto para visualizar as observações e previsões meteorológicas.

Para alterar o mapa : clique nos botões verdes com uma cruz preta para aumentar o zoom; no botão verde com uma pitada de zoom; ou nas setas verdes para mapas adjacentes.


METAR-TAF: